Peetz, Colorado
Current Conditions -  °F | °C
As of 8:53 PM on Monday 20 Oct 2014 (Local Time) from KSNY Reporting Station
Clear Clear  
Wind Chill: 57°   Ceiling: Unl
Heat Index: 57°   Visibility: 10mi
Dew Point: 39°   Wind: 14mph
Humidity: 51%   Direction: 180°S
Pressure: 30.07"   Gusts: NA
Location:  40.96°N, 103.11°W
Report Text: KSNY 210253Z AUTO 18012KT 10SM CLR 14/04 A3007 RMK AO2 SLP158 T01390039 53006
Loading
Personal Weather Stations






























Interactive Weather Map
Tropical Storm Tracking
New forecast layout! Learn more

10-Day Weather Forecast

Advertisements
Track Severe Weather on mobile